Terminal Aerodrome Forecast
Issued by NWS

Home | Current Version | Previous Version | Text Only | Print | Product List | Glossary On
Versions: 1 2 3 4 5 6 7 8 9 10 11 12
000
FTUS44 KEPZ 252326
TAFTCS
TAF
KTCS 252326Z 2600/2624 21019G26KT P6SM SKC
     FM260300 21012KT P6SM SKC
     FM260500 23009KT P6SM SKC
     FM261500 22016G24KT P6SM SKC=

USA.gov is the U.S. government's official web portal to all federal, state and local government web resources and services.